createdAt,value
2023-03-13T00:01:26.420Z,99282.25
2023-03-13T00:03:53.288Z,99270.50
2023-03-13T00:06:20.123Z,99266.84
2023-03-13T00:08:47.220Z,99271.28
2023-03-13T00:11:16.575Z,99257.44
2023-03-13T00:13:44.432Z,99264.50
2023-03-13T00:16:17.530Z,99260.34
2023-03-13T00:18:50.000Z,99257.66
2023-03-13T00:21:23.006Z,99251.16
2023-03-13T00:23:50.723Z,99251.66
2023-03-13T00:26:21.513Z,99240.97
2023-03-13T00:28:49.861Z,99238.38
2023-03-13T00:31:19.396Z,99232.91
2023-03-13T00:33:52.069Z,99222.22
2023-03-13T00:36:25.105Z,99215.41
2023-03-13T00:38:53.373Z,99224.28
2023-03-13T00:41:23.169Z,99226.88
2023-03-13T00:43:55.305Z,99215.13
2023-03-13T00:46:25.905Z,99215.66
2023-03-13T00:48:54.096Z,99217.22
2023-03-13T00:51:22.524Z,99213.25
2023-03-13T00:53:49.912Z,99211.72
2023-03-13T00:56:18.839Z,99206.78
2023-03-13T00:58:47.936Z,99201.06
2023-03-13T01:01:22.463Z,99216.72
2023-03-13T01:03:53.621Z,99206.28
2023-03-13T01:06:24.727Z,99201.09
2023-03-13T01:08:52.730Z,99196.41
2023-03-13T01:11:22.434Z,99204.75
2023-03-13T01:13:50.506Z,99195.38
2023-03-13T01:16:21.468Z,99186.22
2023-03-13T01:21:46.296Z,99180.47
2023-03-13T01:24:13.290Z,99187.03
2023-03-13T01:26:40.481Z,99191.91
2023-03-13T01:29:10.927Z,99174.47
2023-03-13T01:31:38.042Z,99173.72
2023-03-13T01:34:11.097Z,99174.00
2023-03-13T01:36:39.130Z,99169.03
2023-03-13T01:39:07.116Z,99163.81
2023-03-13T01:41:37.370Z,99160.72
2023-03-13T01:44:04.350Z,99160.72
2023-03-13T01:46:38.536Z,99163.84
2023-03-13T01:49:33.643Z,99166.47
2023-03-13T01:52:30.022Z,99164.66
2023-03-13T01:55:15.272Z,99173.53
2023-03-13T01:57:50.694Z,99163.41
2023-03-13T02:00:33.021Z,99170.44
2023-03-13T02:03:09.350Z,99162.63
2023-03-13T02:05:36.326Z,99171.22
2023-03-13T02:08:06.235Z,99159.75
2023-03-13T02:13:29.986Z,99167.06
2023-03-13T02:15:57.321Z,99158.47
2023-03-13T02:18:24.259Z,99171.22
2023-03-13T02:20:57.671Z,99167.06
2023-03-13T02:23:31.453Z,99164.72
2023-03-13T02:26:01.381Z,99165.25
2023-03-13T02:28:38.491Z,99167.59
2023-03-13T02:31:09.829Z,99164.47
2023-03-13T02:33:42.334Z,99162.38
2023-03-13T02:36:14.390Z,99166.81
2023-03-13T02:39:03.677Z,99158.97
2023-03-13T02:41:33.648Z,99161.34
2023-03-13T02:44:00.566Z,99161.06
2023-03-13T02:46:27.464Z,99161.59
2023-03-13T02:48:56.723Z,99166.00
2023-03-13T02:51:41.914Z,99174.34
2023-03-13T02:54:16.754Z,99166.53
2023-03-13T02:56:46.952Z,99178.00
2023-03-13T02:59:14.173Z,99179.53
2023-03-13T03:01:43.663Z,99168.09
2023-03-13T03:04:10.874Z,99172.78
2023-03-13T03:06:39.877Z,99168.63
2023-03-13T03:09:07.827Z,99170.19
2023-03-13T03:11:36.862Z,99179.03
2023-03-13T03:14:09.636Z,99180.34
2023-03-13T03:16:42.249Z,99175.91
2023-03-13T03:19:10.551Z,99178.28
2023-03-13T03:21:37.870Z,99180.09
2023-03-13T03:24:05.373Z,99182.97
2023-03-13T03:26:32.927Z,99183.50
2023-03-13T03:29:00.013Z,99178.53
2023-03-13T03:31:27.811Z,99183.50
2023-03-13T03:33:57.481Z,99170.72
2023-03-13T03:36:24.402Z,99181.13
2023-03-13T03:38:51.865Z,99178.81
2023-03-13T03:41:23.792Z,99181.41
2023-03-13T03:43:50.717Z,99182.16
2023-03-13T03:46:21.770Z,99179.56
2023-03-13T03:48:48.806Z,99175.66
2023-03-13T03:51:15.847Z,99182.72
2023-03-13T03:53:46.925Z,99179.56
2023-03-13T03:56:14.484Z,99181.13
2023-03-13T03:58:46.927Z,99180.09
2023-03-13T04:01:39.955Z,99177.47
2023-03-13T04:04:06.900Z,99185.81
2023-03-13T04:09:49.683Z,99193.38
2023-03-13T04:12:34.643Z,99195.44
2023-03-13T04:15:02.157Z,99184.50
2023-03-13T04:17:29.660Z,99179.28
2023-03-13T04:19:56.935Z,99179.03
2023-03-13T04:22:23.825Z,99178.56
2023-03-13T04:24:56.355Z,99175.66
2023-03-13T04:27:23.740Z,99173.03
2023-03-13T04:29:51.798Z,99165.75
2023-03-13T04:32:42.568Z,99160.53
2023-03-13T04:35:24.104Z,99162.91
2023-03-13T04:38:16.547Z,99156.91
2023-03-13T04:41:02.136Z,99163.94
2023-03-13T04:43:48.568Z,99157.19
2023-03-13T04:46:41.548Z,99154.56
2023-03-13T04:49:34.130Z,99147.78
2023-03-13T04:52:19.612Z,99154.56
2023-03-13T04:55:22.498Z,99146.22
2023-03-13T04:58:10.058Z,99146.50
2023-03-13T05:00:43.798Z,99142.28
2023-03-13T05:03:39.457Z,99144.91
2023-03-13T05:06:29.506Z,99133.44
2023-03-13T05:09:16.642Z,99134.22
2023-03-13T05:12:02.798Z,99127.19
2023-03-13T05:15:01.846Z,99133.72
2023-03-13T05:17:47.413Z,99137.09
2023-03-13T05:20:23.551Z,99131.88
2023-03-13T05:23:13.617Z,99137.06
2023-03-13T05:26:00.603Z,99141.00
2023-03-13T05:28:50.616Z,99141.50
2023-03-13T05:31:56.073Z,99131.38
2023-03-13T05:34:33.678Z,99130.81
2023-03-13T05:37:22.574Z,99131.59
2023-03-13T05:39:58.837Z,99123.00
2023-03-13T05:43:00.935Z,99124.81
2023-03-13T05:45:46.596Z,99125.34
2023-03-13T05:48:36.439Z,99124.84
2023-03-13T05:51:28.682Z,99117.53
2023-03-13T05:54:15.723Z,99122.50
2023-03-13T05:57:07.631Z,99113.91
2023-03-13T06:00:00.586Z,99107.41
2023-03-13T06:02:52.380Z,99106.09
2023-03-13T06:05:26.945Z,99110.53
2023-03-13T06:07:54.538Z,99092.53
2023-03-13T06:10:21.431Z,99093.59
2023-03-13T06:12:57.988Z,99092.53
2023-03-13T06:15:30.988Z,99093.06
2023-03-13T06:18:27.534Z,99098.75
2023-03-13T06:21:01.276Z,99090.69
2023-03-13T06:23:29.588Z,99094.06
2023-03-13T06:25:56.678Z,99095.34
2023-03-13T06:28:23.727Z,99085.66
2023-03-13T06:30:50.599Z,99099.22
2023-03-13T06:33:17.535Z,99081.19
2023-03-13T06:35:55.742Z,99083.53
2023-03-13T06:38:27.858Z,99075.69
2023-03-13T06:40:55.054Z,99080.84
2023-03-13T06:43:22.429Z,99082.94
2023-03-13T06:45:49.746Z,99078.47
2023-03-13T06:48:16.714Z,99075.09
2023-03-13T06:50:43.654Z,99081.88
2023-03-13T06:53:16.030Z,99082.59
2023-03-13T06:55:43.286Z,99075.72
2023-03-13T06:58:18.860Z,99073.00
2023-03-13T07:00:55.914Z,99071.03
2023-03-13T07:03:23.032Z,99065.66
2023-03-13T07:05:56.021Z,99062.09
2023-03-13T07:08:22.842Z,99067.47
2023-03-13T07:10:49.736Z,99062.84
2023-03-13T07:13:16.577Z,99049.28
2023-03-13T07:15:43.409Z,99043.19
2023-03-13T07:18:10.475Z,99045.94
2023-03-13T07:20:37.546Z,99041.28
2023-03-13T07:23:04.316Z,99038.47
2023-03-13T07:25:31.105Z,99028.19
2023-03-13T07:27:57.858Z,99029.53
2023-03-13T07:30:24.830Z,99025.56
2023-03-13T07:32:51.608Z,99024.31
2023-03-13T07:35:18.468Z,99016.44
2023-03-13T07:37:45.377Z,99011.91
2023-03-13T07:40:12.545Z,99009.78
2023-03-13T07:42:42.466Z,99014.75
2023-03-13T07:45:09.850Z,99014.94
2023-03-13T07:47:36.920Z,99010.97
2023-03-13T07:50:06.833Z,99004.88
2023-03-13T07:52:34.064Z,99003.72
2023-03-13T07:55:00.834Z,99005.50
2023-03-13T07:57:28.162Z,99009.56
2023-03-13T07:59:54.898Z,98998.72
2023-03-13T08:02:24.088Z,98991.88
2023-03-13T08:04:54.341Z,99001.78
2023-03-13T08:07:23.032Z,99002.63
2023-03-13T08:09:49.827Z,99004.28
2023-03-13T08:12:42.644Z,98995.91
2023-03-13T08:15:10.286Z,98998.94
2023-03-13T08:17:37.080Z,98984.88
2023-03-13T08:20:04.472Z,98995.47
2023-03-13T08:22:32.619Z,98986.25
2023-03-13T08:25:00.120Z,98976.38
2023-03-13T08:27:33.560Z,98975.69
2023-03-13T08:30:01.196Z,98974.63
2023-03-13T08:32:28.550Z,98964.66
2023-03-13T08:34:56.125Z,98966.44
2023-03-13T08:37:23.564Z,98962.44
2023-03-13T08:39:51.031Z,98959.50
2023-03-13T08:42:17.922Z,98962.44
2023-03-13T08:44:45.024Z,98963.22
2023-03-13T08:47:11.798Z,98957.03
2023-03-13T08:49:38.786Z,98961.09
2023-03-13T08:52:07.010Z,98970.88
2023-03-13T08:54:34.927Z,98958.53
2023-03-13T08:57:02.576Z,98950.69
2023-03-13T08:59:29.410Z,98958.81
2023-03-13T09:02:21.567Z,98949.22
2023-03-13T09:04:49.090Z,98957.00
2023-03-13T09:07:16.008Z,98954.22
2023-03-13T09:09:43.129Z,98940.44
2023-03-13T09:12:24.757Z,98952.50
2023-03-13T09:14:55.296Z,98946.34
2023-03-13T09:17:22.124Z,98942.78
2023-03-13T09:19:59.795Z,98945.59
2023-03-13T09:22:27.538Z,98939.88
2023-03-13T09:24:54.271Z,98934.47
2023-03-13T09:27:21.973Z,98938.16
2023-03-13T09:29:50.751Z,98949.16
2023-03-13T09:32:42.885Z,98961.56
2023-03-13T09:35:10.099Z,98952.56
2023-03-13T09:37:36.929Z,98946.84
2023-03-13T09:40:03.979Z,98924.81
2023-03-13T09:42:55.679Z,98946.22
2023-03-13T09:45:38.986Z,98952.88
2023-03-13T09:48:12.855Z,98949.63
2023-03-13T09:50:45.882Z,98947.78
2023-03-13T09:53:27.362Z,98942.03
2023-03-13T09:55:54.940Z,98931.97
2023-03-13T09:58:28.414Z,98941.41
2023-03-13T10:01:01.460Z,98952.09
2023-03-13T10:03:39.534Z,98935.06
2023-03-13T10:06:15.972Z,98932.88
2023-03-13T10:08:42.911Z,98931.03
2023-03-13T10:11:27.274Z,98921.25
2023-03-13T10:14:20.701Z,98922.97
2023-03-13T10:17:07.522Z,98905.75
2023-03-13T10:19:40.900Z,98901.41
2023-03-13T10:22:18.471Z,98893.34
2023-03-13T10:25:01.486Z,98893.03
2023-03-13T10:27:28.911Z,98890.84
2023-03-13T10:30:28.837Z,98898.13
2023-03-13T10:33:23.724Z,98896.41
2023-03-13T10:36:08.074Z,98888.31
2023-03-13T10:38:47.684Z,98875.97
2023-03-13T10:41:30.995Z,98878.94
2023-03-13T10:44:04.857Z,98875.66
2023-03-13T10:46:40.637Z,98876.72
2023-03-13T10:49:23.960Z,98868.56
2023-03-13T10:51:56.513Z,98862.34
2023-03-13T10:54:32.213Z,98864.66
2023-03-13T10:57:28.920Z,98858.63
2023-03-13T10:59:56.258Z,98848.69
2023-03-13T11:02:32.055Z,98851.47
2023-03-13T11:05:25.435Z,98859.72
2023-03-13T11:07:53.078Z,98856.75
2023-03-13T11:10:30.382Z,98863.91
2023-03-13T11:19:13.516Z,98859.38
2023-03-13T11:21:55.105Z,98864.03
2023-03-13T11:24:35.464Z,98846.31
2023-03-13T11:27:31.186Z,98857.91
2023-03-13T11:30:29.915Z,98863.78
2023-03-13T11:33:10.314Z,98862.34
2023-03-13T11:36:08.155Z,98854.69
2023-03-13T11:38:45.049Z,98846.59
2023-03-13T11:41:46.628Z,98837.06
2023-03-13T11:44:22.148Z,98850.53
2023-03-13T11:47:18.016Z,98840.28
2023-03-13T11:50:03.800Z,98839.66
2023-03-13T11:53:07.706Z,98826.63
2023-03-13T11:55:40.341Z,98813.44
2023-03-13T11:58:31.186Z,98828.28
2023-03-13T12:01:07.016Z,98818.06
2023-03-13T12:03:50.745Z,98829.28
2023-03-13T12:06:35.103Z,98821.34
2023-03-13T12:09:10.635Z,98827.84
2023-03-13T12:11:45.024Z,98792.31
2023-03-13T12:17:39.917Z,98807.88
2023-03-13T12:20:27.429Z,98787.84
2023-03-13T12:23:19.321Z,98754.06
2023-03-13T12:25:54.876Z,98787.56
2023-03-13T12:28:35.403Z,98787.81
2023-03-13T12:31:08.044Z,98773.50
2023-03-13T12:33:40.684Z,98775.25
2023-03-13T12:36:31.829Z,98776.03
2023-03-13T12:39:28.680Z,98765.59
2023-03-13T12:42:32.897Z,98779.69
2023-03-13T12:45:00.160Z,98775.31
2023-03-13T12:48:04.368Z,98750.72
2023-03-13T12:50:55.915Z,98756.91
2023-03-13T12:53:45.839Z,98738.72
2023-03-13T12:56:23.325Z,98730.81
2023-03-13T12:59:03.176Z,98747.69
2023-03-13T13:01:36.584Z,98739.00
2023-03-13T13:04:12.981Z,98740.72
2023-03-13T13:07:21.366Z,98728.63
2023-03-13T13:10:16.708Z,98721.59
2023-03-13T13:12:47.557Z,98731.69
2023-03-13T13:15:22.561Z,98728.63
2023-03-13T13:17:49.306Z,98728.63
2023-03-13T13:20:29.064Z,98729.81
2023-03-13T13:22:58.502Z,98727.16
2023-03-13T13:25:34.469Z,98708.38
2023-03-13T13:28:18.691Z,98705.84
2023-03-13T13:34:01.692Z,98679.53
2023-03-13T13:36:30.246Z,98668.94
2023-03-13T13:38:57.904Z,98667.94
2023-03-13T13:41:34.224Z,98668.41
2023-03-13T13:44:56.612Z,98671.81
2023-03-13T13:47:27.552Z,98668.72
2023-03-13T13:49:57.674Z,98660.56
2023-03-13T13:52:38.860Z,98648.88
2023-03-13T13:55:22.121Z,98653.06
2023-03-13T13:57:49.957Z,98656.38
2023-03-13T14:00:23.817Z,98643.56
2023-03-13T14:02:53.862Z,98638.28
2023-03-13T14:05:26.318Z,98635.72
2023-03-13T14:08:08.376Z,98624.50
2023-03-13T14:10:37.533Z,98619.41
2023-03-13T14:13:19.561Z,98617.31
2023-03-13T14:15:51.532Z,98620.38
2023-03-13T14:18:30.160Z,98615.19
2023-03-13T14:21:04.619Z,98617.03
2023-03-13T14:23:37.792Z,98604.84
2023-03-13T14:26:16.503Z,98596.81
2023-03-13T14:28:48.913Z,98592.53
2023-03-13T14:31:31.649Z,98591.97
2023-03-13T14:34:01.836Z,98572.59
2023-03-13T14:36:29.120Z,98570.34
2023-03-13T14:39:00.403Z,98578.75
2023-03-13T14:41:48.146Z,98579.72
2023-03-13T14:44:29.496Z,98564.97
2023-03-13T14:47:00.603Z,98560.69
2023-03-13T14:49:29.618Z,98565.75
2023-03-13T14:52:14.400Z,98558.91
2023-03-13T14:58:04.543Z,98552.78
2023-03-13T15:00:43.626Z,98544.50
2023-03-13T15:03:21.563Z,98543.63
2023-03-13T15:06:04.805Z,98543.72
2023-03-13T15:08:32.058Z,98533.16
2023-03-13T15:10:58.826Z,98544.75
2023-03-13T15:13:27.904Z,98548.72
2023-03-13T15:15:55.444Z,98540.03
2023-03-13T15:21:40.565Z,98533.22
2023-03-13T15:24:15.227Z,98536.63
2023-03-13T15:26:45.299Z,98531.75
2023-03-13T15:29:13.471Z,98529.44
2023-03-13T15:31:40.625Z,98535.84
2023-03-13T15:34:13.690Z,98529.00
2023-03-13T15:36:40.638Z,98531.66
2023-03-13T15:39:17.869Z,98532.00
2023-03-13T15:42:09.903Z,98523.53
2023-03-13T15:44:37.069Z,98528.81
2023-03-13T15:47:04.004Z,98514.41
2023-03-13T15:49:30.985Z,98511.41
2023-03-13T15:51:57.965Z,98518.13
2023-03-13T15:54:24.974Z,98518.22
2023-03-13T15:56:52.216Z,98515.84
2023-03-13T15:59:19.272Z,98513.50
2023-03-13T16:01:46.175Z,98512.66
2023-03-13T16:04:39.624Z,98515.19
2023-03-13T16:07:31.308Z,98512.31
2023-03-13T16:09:58.297Z,98497.25
2023-03-13T16:12:25.110Z,98493.19
2023-03-13T16:14:52.132Z,98499.13
2023-03-13T16:17:20.536Z,98497.13
2023-03-13T16:22:38.948Z,98486.38
2023-03-13T16:25:06.394Z,98488.59
2023-03-13T16:27:35.555Z,98494.53
2023-03-13T16:30:02.417Z,98492.03
2023-03-13T16:32:29.494Z,98490.94
2023-03-13T16:34:56.330Z,98486.31
2023-03-13T16:37:23.307Z,98490.38
2023-03-13T16:39:51.584Z,98488.31
2023-03-13T16:42:22.045Z,98486.91
2023-03-13T16:44:49.352Z,98481.06
2023-03-13T16:47:22.162Z,98489.56
2023-03-13T16:49:49.526Z,98490.00
2023-03-13T16:52:17.986Z,98484.72
2023-03-13T16:54:46.228Z,98486.94
2023-03-13T16:57:16.764Z,98483.06
2023-03-13T16:59:43.760Z,98477.47
2023-03-13T17:02:19.879Z,98473.63
2023-03-13T17:04:49.215Z,98466.03
2023-03-13T17:07:20.073Z,98451.31
2023-03-13T17:09:51.812Z,98445.47
2023-03-13T17:12:20.734Z,98447.34
2023-03-13T17:14:48.043Z,98438.31
2023-03-13T17:17:19.890Z,98442.38
2023-03-13T17:19:47.550Z,98442.28
2023-03-13T17:22:17.557Z,98439.41
2023-03-13T17:24:44.848Z,98432.72
2023-03-13T17:27:14.218Z,98422.16
2023-03-13T17:29:42.123Z,98416.13
2023-03-13T17:32:14.471Z,98409.97
2023-03-13T17:34:42.375Z,98418.53
2023-03-13T17:37:16.647Z,98419.63
2023-03-13T17:39:44.258Z,98416.84
2023-03-13T17:42:11.707Z,98404.44
2023-03-13T17:44:39.388Z,98402.13
2023-03-13T17:47:31.781Z,98393.78
2023-03-13T17:49:59.203Z,98387.28
2023-03-13T17:52:28.248Z,98389.69
2023-03-13T17:54:55.566Z,98372.13
2023-03-13T17:57:23.241Z,98371.66
2023-03-13T17:59:50.179Z,98366.84
2023-03-13T18:02:18.473Z,98369.00
2023-03-13T18:04:46.399Z,98362.63
2023-03-13T18:07:25.538Z,98349.66
2023-03-13T18:09:53.595Z,98351.41
2023-03-13T18:12:21.713Z,98354.91
2023-03-13T18:14:48.824Z,98349.53
2023-03-13T18:17:22.115Z,98351.09
2023-03-13T18:19:51.893Z,98349.28
2023-03-13T18:22:44.595Z,98354.13
2023-03-13T18:25:12.286Z,98346.75
2023-03-13T18:27:40.604Z,98360.56
2023-03-13T18:30:19.233Z,98363.41
2023-03-13T18:32:47.080Z,98363.59
2023-03-13T18:35:16.456Z,98355.16
2023-03-13T18:37:53.093Z,98355.91
2023-03-13T18:40:29.372Z,98346.91
2023-03-13T18:42:57.840Z,98330.66
2023-03-13T18:45:27.083Z,98323.56
2023-03-13T18:47:54.345Z,98311.94
2023-03-13T18:50:29.724Z,98314.22
2023-03-13T18:53:03.935Z,98307.31
2023-03-13T18:55:32.763Z,98307.19
2023-03-13T18:58:00.558Z,98302.56
2023-03-13T19:00:31.391Z,98299.13
2023-03-13T19:03:01.396Z,98290.19
2023-03-13T19:05:29.437Z,98284.50
2023-03-13T19:07:58.350Z,98284.03
2023-03-13T19:10:28.905Z,98279.88
2023-03-13T19:12:58.217Z,98267.69
2023-03-13T19:15:29.485Z,98260.31
2023-03-13T19:18:01.852Z,98253.19
2023-03-13T19:20:30.676Z,98263.25
2023-03-13T19:22:58.332Z,98252.63
2023-03-13T19:25:25.760Z,98244.09
2023-03-13T19:28:19.210Z,98235.41
2023-03-13T19:30:46.935Z,98230.94
2023-03-13T19:33:15.656Z,98220.53
2023-03-13T19:35:43.605Z,98209.69
2023-03-13T19:38:13.175Z,98214.94
2023-03-13T19:40:42.069Z,98216.47
2023-03-13T19:43:14.816Z,98215.38
2023-03-13T19:45:45.902Z,98214.50
2023-03-13T19:48:14.982Z,98224.00
2023-03-13T19:50:42.679Z,98221.44
2023-03-13T19:53:12.012Z,98205.22
2023-03-13T19:55:40.871Z,98187.69
2023-03-13T19:58:09.465Z,98188.28
2023-03-13T20:00:37.274Z,98184.97
2023-03-13T20:03:05.963Z,98178.53
2023-03-13T20:05:33.798Z,98179.47
2023-03-13T20:08:01.836Z,98182.66
2023-03-13T20:10:32.063Z,98177.31
2023-03-13T20:13:25.020Z,98165.31
2023-03-13T20:15:52.589Z,98163.88
2023-03-13T20:18:19.920Z,98159.00
2023-03-13T20:20:49.512Z,98154.59
2023-03-13T20:23:17.673Z,98145.00
2023-03-13T20:25:45.635Z,98150.59
2023-03-13T20:28:13.496Z,98131.44
2023-03-13T20:30:43.538Z,98122.97
2023-03-13T20:33:12.345Z,98113.88
2023-03-13T20:35:40.218Z,98120.41
2023-03-13T20:38:10.892Z,98105.81
2023-03-13T20:41:03.795Z,98104.00
2023-03-13T20:43:36.021Z,98096.00
2023-03-13T20:46:06.511Z,98095.75
2023-03-13T20:48:38.437Z,98094.19
2023-03-13T20:51:08.413Z,98093.63
2023-03-13T20:53:40.556Z,98086.53
2023-03-13T20:56:10.397Z,98083.91
2023-03-13T20:58:40.394Z,98078.66
2023-03-13T21:01:08.826Z,98074.38
2023-03-13T21:03:37.645Z,98073.47
2023-03-13T21:06:16.551Z,98064.56
2023-03-13T21:08:46.776Z,98057.53
2023-03-13T21:11:19.744Z,98055.97
2023-03-13T21:13:49.929Z,98045.81
2023-03-13T21:16:19.047Z,98044.28
2023-03-13T21:18:47.555Z,98035.19
2023-03-13T21:21:18.000Z,98029.16
2023-03-13T21:23:46.417Z,98022.06
2023-03-13T21:26:14.766Z,98021.59
2023-03-13T21:28:42.095Z,98024.22
2023-03-13T21:31:15.578Z,98023.78
2023-03-13T21:33:47.208Z,98012.38
2023-03-13T21:36:17.700Z,98003.44
2023-03-13T21:38:46.522Z,98001.94
2023-03-13T21:41:20.602Z,97973.41
2023-03-13T21:44:12.461Z,97970.00
2023-03-13T21:46:39.363Z,97960.78
2023-03-13T21:49:06.155Z,97950.16
2023-03-13T21:51:34.544Z,97957.44
2023-03-13T21:54:03.133Z,97957.91
2023-03-13T21:56:30.135Z,97957.78
2023-03-13T21:58:56.962Z,97962.44
2023-03-13T22:01:23.814Z,97970.59
2023-03-13T22:03:50.659Z,97958.25
2023-03-13T22:06:20.499Z,97952.88
2023-03-13T22:08:49.615Z,97938.97
2023-03-13T22:11:16.955Z,97951.94
2023-03-13T22:13:44.160Z,97943.47
2023-03-13T22:16:11.862Z,97946.16
2023-03-13T22:18:39.562Z,97932.91
2023-03-13T22:21:07.249Z,97911.97
2023-03-13T22:23:34.485Z,97897.94
2023-03-13T22:26:01.251Z,97884.81
2023-03-13T22:28:28.135Z,97892.63
2023-03-13T22:30:55.194Z,97890.50
2023-03-13T22:33:22.084Z,97889.66
2023-03-13T22:35:51.313Z,97873.34
2023-03-13T22:38:22.474Z,97865.00
2023-03-13T22:40:57.786Z,97852.16
2023-03-13T22:43:24.789Z,97851.88
2023-03-13T22:45:51.565Z,97839.41
2023-03-13T22:48:18.460Z,97823.22
2023-03-13T22:50:45.267Z,97826.75
2023-03-13T22:53:12.378Z,97814.13
2023-03-13T22:55:39.231Z,97802.63
2023-03-13T22:58:06.140Z,97793.44
2023-03-13T23:00:32.946Z,97789.38
2023-03-13T23:02:59.770Z,97787.91
2023-03-13T23:05:26.722Z,97791.72
2023-03-13T23:07:53.609Z,97793.69
2023-03-13T23:10:22.840Z,97791.44
2023-03-13T23:12:49.989Z,97785.59
2023-03-13T23:15:26.611Z,97771.97
2023-03-13T23:18:02.811Z,97762.66
2023-03-13T23:20:29.630Z,97763.31
2023-03-13T23:22:56.692Z,97758.91
2023-03-13T23:25:23.602Z,97761.25
2023-03-13T23:27:51.014Z,97768.19
2023-03-13T23:30:21.627Z,97765.72
2023-03-13T23:32:48.655Z,97765.56
2023-03-13T23:35:16.623Z,97761.13
2023-03-13T23:37:46.431Z,97752.97
2023-03-13T23:40:13.555Z,97755.34
2023-03-13T23:42:45.001Z,97742.19
2023-03-13T23:45:12.249Z,97736.25
2023-03-13T23:47:39.095Z,97730.75
2023-03-13T23:50:06.254Z,97735.13
2023-03-13T23:52:36.275Z,97728.38
2023-03-13T23:55:04.070Z,97721.03
2023-03-13T23:57:31.246Z,97717.28
2023-03-13T23:59:58.122Z,97717.16
